首页
METAR-TAF:

METAR-TAF

机场 :

Searle Field

Ogallala, 內布拉斯加州, 美国

纬度: 41-07-11N, 经度: 101-46-08W, 海拔: 999米

当前天气观测

该预报发布于24分钟前的00:35 UTC
静风
温度 6°C
湿度 52%
气压 1014 hPa
能見度: 16.1公里
天空无云

METAR: KOGA 180035Z AUTO 00000KT 10SM CLR 06/M03 A2994 RMK AO2 T00601030

时间: 17:59 (00:59 UTC)


TAF: 丢失

超过4000个机场的气象观测和天气预报(METAR&TAF报告)。

可查询的气象台以黄色和红色小点在地图上表示。

将鼠标移到小点上方,可查看气象台名称。

然后点击查看天气观测和预报。

如需切换地图:点击带黑十字的绿色按钮放大地图;点击带横线的绿色按钮缩小地图;或者点击绿色箭头查看邻近地区的地图。


METAR-TAF: